Главная страница
METAR-TAF:

METAR-TAF

Аэропорты :

Пуант-а-Питр, Гваделупа

широта: 16-16N, долгота: 061-31W, высота над уровнем моря: 11 м

Текущие метеонаблюдения

Эта сводка был подготовлена 35 минут назад, в 12:00 UTC
Ветер 4 Узел от восточно-юго-восточный, изменяющийся между восточно-северо-восточный и юго-восточный
Температура 25°C
Влажность 79%
Давление 1017 hPa
Видимость 10 км и более
Нет облачности ниже 1500 м, и нет кучево-дождевой облачности

METAR: TFFR 211200Z AUTO 11004KT 070V140 CAVOK 25/21 Q1017 NOSIG

Время: 08:35 (12:35 UTC)

Прогноз

Эта сводка был подготовлена 1 час и 35 минут назад, в 11:00 UTC
Прогноз действительный с 21-го 12 UTC до 22-го 12 UTC
Ветер 12 Узел от восточный
Видимость 10 км и более
небольшая облачность на высоте 3000 фута
Вероятность 30% :
временами
С 22-го 06 UTC до 22-го 12 UTC
Видимость: 4000 м
Отдельные облака на высоте 1800 фута, мощно-кучевые.
ливневые дожди

TAF: TFFR 211100Z 2112/2212 10012KT 9999 FEW030 PROB30 TEMPO 2206/2212 4000 SHRA SCT018TCU

Метеонаблюдения и прогнозы для более 4000 аэропортов (сводки METAR и TAF).

Имеющиеся станции представлены на карте желтыми и красными точками.

Чтобы увидеть название станции, наведите на нее мышь.

Затем щелкните, чтобы увидеть метеонаблюдения и метеопрогнозы.

Управление картой: чтобы увеличить масштаб, щелкните зеленые кнопки с черным крестиком; чтобы уменьшить масштаб, щелкните зеленую кнопку с тире; для просмотра соседних карт щелкайте зеленые стрелки.


METAR-TAF: